Time;durP1;ratioP1;P1;durP2;ratioP2;P2;SDS_P1;SDS_P2;PMS_P1;PMS_P2;Temp;Humidity;BMP_temperature;BMP_pressure;BME280_temperature;BME280_humidity;BME280_pressure;Samples;Min_cycle;Max_cycle;Signal;HPM_P1;HPM_P2
2021/07/12 00:01:17;;;;;;;13.65;9.55;;;;;;;20.39;62.53;98380.69;4917371;29;20032;-77
2021/07/12 00:03:42;;;;;;;13.85;9.50;;;;;;;20.33;62.52;98382.94;4934040;29;20042;-76
2021/07/12 00:06:07;;;;;;;12.48;9.73;;;;;;;20.36;62.57;98384.19;4935165;29;20114;-77
2021/07/12 00:08:33;;;;;;;13.00;9.30;;;;;;;20.38;62.67;98382.66;4934921;29;20540;-77
2021/07/12 00:10:58;;;;;;;13.55;8.95;;;;;;;20.38;62.93;98379.06;4938094;29;20038;-77
2021/07/12 00:13:24;;;;;;;10.82;9.27;;;;;;;20.40;63.26;98381.47;4934677;29;20480;-77
2021/07/12 00:15:49;;;;;;;12.55;9.18;;;;;;;20.44;63.08;98383.19;4934495;29;20032;-77
2021/07/12 00:18:15;;;;;;;10.98;8.65;;;;;;;20.46;63.83;98394.78;4934400;29;20036;-77
2021/07/12 00:20:40;;;;;;;10.70;8.40;;;;;;;20.48;63.42;98386.84;4934645;29;20042;-78
2021/07/12 00:23:05;;;;;;;13.05;9.27;;;;;;;20.49;63.19;98388.47;4934245;29;20028;-77
2021/07/12 00:25:31;;;;;;;12.40;8.65;;;;;;;20.52;63.23;98379.38;4934702;29;20492;-77
2021/07/12 00:27:58;;;;;;;13.25;9.40;;;;;;;20.55;63.15;98374.25;4934071;29;20031;-77
2021/07/12 00:30:24;;;;;;;12.43;9.27;;;;;;;20.57;63.29;98371.91;4945829;29;20043;-79
2021/07/12 00:32:50;;;;;;;13.38;9.75;;;;;;;20.59;63.26;98366.75;4943311;28;20035;-79
2021/07/12 00:35:16;;;;;;;12.57;9.65;;;;;;;20.60;63.33;98360.84;4935469;29;20039;-78
2021/07/12 00:37:46;;;;;;;13.35;9.57;;;;;;;20.59;62.98;98350.03;4933260;29;20480;-77
2021/07/12 00:40:15;;;;;;;12.05;9.43;;;;;;;20.61;63.23;98350.47;4932992;29;20040;-77
2021/07/12 00:42:42;;;;;;;14.93;10.38;;;;;;;20.61;63.17;98350.47;4929606;29;20035;-77
2021/07/12 00:45:14;;;;;;;15.07;9.45;;;;;;;20.62;63.40;98350.13;4930720;29;20522;-77
2021/07/12 00:47:40;;;;;;;15.18;9.93;;;;;;;20.62;63.25;98352.09;4931060;29;20032;-78
2021/07/12 00:50:08;;;;;;;11.32;9.20;;;;;;;20.64;63.21;98345.00;4919283;29;20031;-78
2021/07/12 00:52:34;;;;;;;13.25;9.15;;;;;;;20.65;63.42;98335.47;4924128;29;20031;-77
2021/07/12 00:55:00;;;;;;;12.35;9.65;;;;;;;20.64;63.07;98341.38;4933098;29;20388;-78
2021/07/12 00:57:26;;;;;;;13.18;9.40;;;;;;;20.60;63.20;98352.47;4934820;29;20115;-78
2021/07/12 00:59:52;;;;;;;14.68;9.40;;;;;;;20.58;63.45;98357.59;4933960;29;20118;-78
2021/07/12 01:02:18;;;;;;;15.30;9.88;;;;;;;20.60;63.63;98368.38;4929770;29;20047;-78
2021/07/12 01:04:43;;;;;;;14.05;9.23;;;;;;;20.59;63.34;98361.19;4925337;29;20031;-78
2021/07/12 01:07:10;;;;;;;13.90;10.05;;;;;;;20.55;63.16;98363.13;4936862;29;20115;-78
2021/07/12 01:09:37;;;;;;;14.77;9.98;;;;;;;20.51;63.29;98371.38;4937259;29;20075;-77
2021/07/12 01:12:25;;;;;;;12.82;10.05;;;;;;;20.44;63.27;98374.00;4934018;29;20122;-77
2021/07/12 01:15:02;;;;;;;13.13;10.02;;;;;;;20.43;63.33;98375.19;4932883;29;20039;-77
2021/07/12 01:17:45;;;;;;;15.35;10.48;;;;;;;20.42;63.24;98371.59;4933093;29;20036;-78
2021/07/12 01:20:42;;;;;;;12.48;9.55;;;;;;;20.37;63.46;98357.94;4933019;29;20035;-78
2021/07/12 01:23:33;;;;;;;12.93;9.70;;;;;;;20.32;63.45;98377.72;4926109;29;20028;-78
2021/07/12 01:26:46;;;;;;;14.05;10.93;;;;;;;20.31;63.45;98364.97;4936789;29;20032;-78
2021/07/12 01:29:28;;;;;;;15.48;11.27;;;;;;;20.28;63.58;98360.94;4935081;29;20032;-77
2021/07/12 01:32:12;;;;;;;13.73;10.10;;;;;;;20.21;63.55;98361.59;4936225;29;20069;-77
2021/07/12 01:34:59;;;;;;;12.48;9.73;;;;;;;20.17;63.87;98354.31;4936365;29;20026;-78
2021/07/12 01:37:35;;;;;;;16.52;10.63;;;;;;;20.18;63.76;98353.94;4934007;29;20051;-78
2021/07/12 01:40:08;;;;;;;15.68;11.15;;;;;;;20.21;64.04;98358.78;4932953;29;20083;-78
2021/07/12 01:43:07;;;;;;;16.52;11.68;;;;;;;20.22;63.95;98368.75;4932815;29;20060;-77
2021/07/12 01:45:45;;;;;;;18.52;11.43;;;;;;;20.20;64.02;98376.66;4937735;29;20134;-77
2021/07/12 01:48:19;;;;;;;13.07;10.35;;;;;;;20.18;64.18;98367.88;4945775;29;20027;-77
2021/07/12 01:50:50;;;;;;;15.38;11.30;;;;;;;20.22;64.11;98373.53;4941704;29;20028;-78
2021/07/12 01:53:30;;;;;;;51.38;35.00;;;;;;;20.23;64.03;98381.53;4946546;29;20503;-78
2021/07/12 01:56:03;;;;;;;19.77;14.23;;;;;;;20.26;64.27;98365.25;4944894;29;20031;-77
2021/07/12 01:58:48;;;;;;;20.27;12.63;;;;;;;20.26;64.22;98368.03;4945333;29;20044;-78
2021/07/12 02:01:15;;;;;;;15.82;11.68;;;;;;;20.28;64.29;98357.34;4945531;29;20041;-78
2021/07/12 02:03:43;;;;;;;15.77;12.15;;;;;;;20.27;64.40;98359.34;4944697;29;20066;-78
2021/07/12 02:06:10;;;;;;;17.20;11.55;;;;;;;20.27;64.26;98353.78;4943063;29;20038;-77
2021/07/12 02:08:45;;;;;;;16.33;11.98;;;;;;;20.29;64.44;98368.13;4942669;28;20082;-78
2021/07/12 02:11:13;;;;;;;16.85;12.18;;;;;;;20.28;64.20;98365.69;4944080;29;20031;-78
2021/07/12 02:13:39;;;;;;;16.63;11.52;;;;;;;20.30;64.30;98368.94;4943233;29;20480;-78
2021/07/12 02:16:06;;;;;;;15.98;11.27;;;;;;;20.30;64.67;98366.16;4940812;29;20484;-78
2021/07/12 02:18:34;;;;;;;16.60;11.48;;;;;;;20.28;64.33;98366.53;4937054;29;20059;-79
2021/07/12 02:21:01;;;;;;;16.17;11.75;;;;;;;20.28;64.32;98366.53;4938467;29;20539;-77
2021/07/12 02:23:28;;;;;;;17.25;12.23;;;;;;;20.26;64.59;98363.28;4943470;29;20542;-78
2021/07/12 02:25:54;;;;;;;20.58;12.10;;;;;;;20.29;64.57;98367.31;4944614;29;20043;-77
2021/07/12 02:28:21;;;;;;;14.98;11.23;;;;;;;20.27;64.47;98364.91;4944588;28;20756;-78
2021/07/12 02:30:47;;;;;;;16.75;12.05;;;;;;;20.25;64.70;98364.47;4943721;29;20034;-78
2021/07/12 02:33:15;;;;;;;16.10;11.77;;;;;;;20.22;64.59;98362.41;4944862;28;20036;-77
2021/07/12 02:35:41;;;;;;;16.45;11.82;;;;;;;20.21;64.42;98358.78;4926915;29;20038;-79
2021/07/12 02:38:08;;;;;;;17.75;12.48;;;;;;;20.22;64.49;98343.72;4942391;29;20028;-78
2021/07/12 02:40:35;;;;;;;15.45;11.75;;;;;;;20.23;64.49;98353.66;4943095;28;20035;-78
2021/07/12 02:43:01;;;;;;;15.43;11.68;;;;;;;20.19;64.46;98366.72;4926787;29;20063;-78
2021/07/12 02:45:29;;;;;;;17.77;12.35;;;;;;;20.18;64.49;98359.53;4936297;29;20039;-78
2021/07/12 02:47:55;;;;;;;19.98;13.07;;;;;;;20.19;64.83;98358.34;4934792;29;20091;-78
2021/07/12 02:50:21;;;;;;;19.70;13.27;;;;;;;20.20;64.85;98356.38;4931959;29;20040;-78
2021/07/12 02:52:59;;;;;;;18.15;12.93;;;;;;;20.21;64.53;98369.94;4930080;29;20535;-78
2021/07/12 02:55:25;;;;;;;19.00;12.38;;;;;;;20.19;64.85;98377.84;4930263;29;20031;-77
2021/07/12 02:57:50;;;;;;;15.68;11.60;;;;;;;20.15;64.76;98373.38;4932235;29;20026;-78
2021/07/12 03:00:16;;;;;;;19.05;12.38;;;;;;;20.11;64.89;98376.09;4934458;29;20039;-78
2021/07/12 03:02:42;;;;;;;17.48;11.90;;;;;;;20.13;64.84;98368.19;4934237;29;20040;-78
2021/07/12 03:05:09;;;;;;;17.30;11.52;;;;;;;20.15;64.94;98362.25;4931247;29;20124;-78
2021/07/12 03:07:43;;;;;;;16.67;12.10;;;;;;;20.14;64.87;98355.88;4929493;29;20036;-77
2021/07/12 03:10:14;;;;;;;16.98;11.73;;;;;;;20.12;65.06;98365.75;4922869;29;20034;-78
2021/07/12 03:12:46;;;;;;;16.83;12.30;;;;;;;20.15;64.88;98370.59;4921804;29;20032;-78
2021/07/12 03:15:13;;;;;;;19.00;12.85;;;;;;;20.15;65.05;98371.41;4933022;29;20020;-78
2021/07/12 03:17:45;;;;;;;17.92;12.75;;;;;;;20.14;65.05;98358.66;4923660;29;20028;-79
2021/07/12 03:20:12;;;;;;;20.00;13.25;;;;;;;20.16;65.22;98364.69;4932659;29;20024;-78
2021/07/12 03:22:39;;;;;;;15.95;12.07;;;;;;;20.16;65.30;98361.88;4931937;29;20020;-78
2021/07/12 03:25:06;;;;;;;20.13;12.57;;;;;;;20.18;65.05;98369.88;4934328;29;20038;-78
2021/07/12 03:27:33;;;;;;;18.27;12.60;;;;;;;20.17;65.27;98369.06;4931552;29;20031;-78
2021/07/12 03:30:00;;;;;;;17.77;12.75;;;;;;;20.18;65.49;98367.09;4934765;29;20028;-79
2021/07/12 03:32:30;;;;;;;21.63;13.38;;;;;;;20.18;65.44;98369.88;4934606;29;20034;-77
2021/07/12 03:34:57;;;;;;;20.98;13.63;;;;;;;20.21;65.50;98371.94;4933227;29;20032;-78
2021/07/12 03:37:23;;;;;;;16.83;12.82;;;;;;;20.25;65.79;98360.84;4928422;29;20032;-78
2021/07/12 03:39:49;;;;;;;18.38;12.38;;;;;;;20.28;65.69;98371.28;4930951;29;20675;-78
2021/07/12 03:42:16;;;;;;;18.23;13.00;;;;;;;20.29;65.71;98376.50;4932969;29;20027;-78
2021/07/12 03:44:41;;;;;;;22.73;14.77;;;;;;;20.30;65.70;98385.63;4935337;29;20472;-78
2021/07/12 03:47:07;;;;;;;22.98;15.00;;;;;;;20.30;65.86;98375.31;4940453;29;20035;-78
2021/07/12 03:49:32;;;;;;;24.90;15.32;;;;;;;20.31;65.80;98384.47;4941323;28;20390;-76
2021/07/12 03:51:59;;;;;;;24.05;16.85;;;;;;;20.32;66.05;98389.69;4942213;29;20023;-79
2021/07/12 03:54:25;;;;;;;25.77;16.75;;;;;;;20.35;66.40;98397.31;4927652;29;20035;-78
2021/07/12 03:56:51;;;;;;;24.33;16.55;;;;;;;20.36;66.45;98396.16;4942924;29;20095;-78
2021/07/12 03:59:16;;;;;;;24.88;17.75;;;;;;;20.35;66.42;98396.50;4942833;28;20119;-78
2021/07/12 04:01:42;;;;;;;22.33;15.63;;;;;;;20.34;66.30;98403.25;4940668;29;20036;-78
2021/07/12 04:04:07;;;;;;;28.55;17.67;;;;;;;20.32;66.66;98400.00;4938823;29;20498;-78
2021/07/12 04:06:33;;;;;;;31.55;18.73;;;;;;;20.29;66.70;98400.72;4933115;29;20374;-78
2021/07/12 04:08:58;;;;;;;26.15;17.33;;;;;;;20.30;66.91;98400.38;4939992;29;20106;-78
2021/07/12 04:11:31;;;;;;;25.70;18.42;;;;;;;20.30;67.08;98405.97;4944005;29;20055;-78
2021/07/12 04:13:56;;;;;;;33.75;19.90;;;;;;;20.25;67.38;98397.88;4941588;29;20085;-78
2021/07/12 04:16:21;;;;;;;26.23;18.27;;;;;;;20.26;67.24;98401.47;4940530;29;20031;-78
2021/07/12 04:18:47;;;;;;;27.98;19.23;;;;;;;20.27;67.25;98400.28;4934794;29;20059;-78
2021/07/12 04:21:13;;;;;;;32.20;20.25;;;;;;;20.28;67.42;98405.50;4930949;29;20036;-78
2021/07/12 04:23:39;;;;;;;30.88;20.20;;;;;;;20.33;67.35;98407.19;4929891;29;20059;-78
2021/07/12 04:26:04;;;;;;;29.90;19.02;;;;;;;20.33;67.53;98401.63;4933297;29;20492;-79
2021/07/12 04:28:30;;;;;;;30.90;22.40;;;;;;;20.34;67.47;98408.81;4930044;29;20023;-79
2021/07/12 04:30:55;;;;;;;36.03;23.50;;;;;;;20.35;68.27;98405.69;4930118;29;20422;-78
2021/07/12 04:33:20;;;;;;;34.63;23.85;;;;;;;20.31;67.72;98403.97;4934831;29;20032;-77
2021/07/12 04:35:46;;;;;;;33.72;22.52;;;;;;;20.33;67.59;98410.81;4933563;29;20519;-77
2021/07/12 04:38:11;;;;;;;33.70;23.27;;;;;;;20.35;67.68;98405.69;4933851;29;20035;-77
2021/07/12 04:40:36;;;;;;;25.08;18.20;;;;;;;20.35;67.62;98399.28;4937113;29;20035;-78
2021/07/12 04:43:02;;;;;;;27.95;18.83;;;;;;;20.35;67.97;98388.16;4938728;29;20099;-78
2021/07/12 04:45:27;;;;;;;27.02;17.75;;;;;;;20.36;67.75;98389.75;4938867;29;20044;-79
2021/07/12 04:47:53;;;;;;;20.52;14.50;;;;;;;20.37;67.73;98388.59;4938847;29;20098;-78
2021/07/12 04:50:19;;;;;;;23.35;14.95;;;;;;;20.41;67.90;98405.38;4938156;29;20102;-78
2021/07/12 04:52:44;;;;;;;19.45;14.40;;;;;;;20.39;67.80;98397.38;4938386;29;20087;-78
2021/07/12 04:55:10;;;;;;;21.83;14.73;;;;;;;20.40;67.84;98392.63;4938192;29;20026;-78
2021/07/12 04:57:36;;;;;;;18.98;13.57;;;;;;;20.41;67.47;98400.63;4938258;29;20028;-78
2021/07/12 05:00:05;;;;;;;16.15;13.02;;;;;;;20.40;67.68;98412.94;4938387;29;20058;-79
2021/07/12 05:02:31;;;;;;;18.27;12.95;;;;;;;20.37;67.49;98405.31;4938205;29;20028;-77
2021/07/12 05:04:56;;;;;;;17.27;12.80;;;;;;;20.38;67.52;98399.34;4937835;29;20094;-77
2021/07/12 05:07:21;;;;;;;17.52;11.82;;;;;;;20.39;67.66;98389.03;4921046;29;20016;-78
2021/07/12 05:09:47;;;;;;;11.98;7.82;;;;;;;20.34;67.57;98390.13;4937610;29;20469;-79
2021/07/12 05:12:13;;;;;;;10.90;7.75;;;;;;;20.27;67.31;98383.56;4937691;29;20440;-78
2021/07/12 05:14:40;;;;;;;12.90;8.75;;;;;;;20.22;67.27;98384.69;4937655;29;20115;-78
2021/07/12 05:17:06;;;;;;;14.50;9.48;;;;;;;20.20;67.38;98381.44;4937629;29;20052;-77
2021/07/12 05:19:32;;;;;;;11.85;9.00;;;;;;;20.19;67.48;98386.19;4937615;29;20028;-78
2021/07/12 05:21:57;;;;;;;13.43;9.02;;;;;;;20.18;67.46;98384.59;4937497;28;20551;-78
2021/07/12 05:24:23;;;;;;;17.88;9.95;;;;;;;20.16;67.70;98386.13;4937457;29;20024;-78
2021/07/12 05:26:48;;;;;;;18.02;8.70;;;;;;;20.15;67.67;98381.72;4935489;29;20094;-78
2021/07/12 05:29:14;;;;;;;16.35;8.55;;;;;;;20.14;67.68;98388.47;4937369;29;20055;-78
2021/07/12 05:31:39;;;;;;;12.18;7.40;;;;;;;20.15;68.02;98393.69;4935369;29;20106;-77
2021/07/12 05:34:04;;;;;;;15.75;8.55;;;;;;;20.16;67.78;98397.25;4937137;29;20024;-78
2021/07/12 05:36:30;;;;;;;14.23;8.32;;;;;;;20.15;67.75;98401.22;4937354;29;20131;-77
2021/07/12 05:38:56;;;;;;;16.10;8.43;;;;;;;20.16;67.90;98392.50;4935120;29;20114;-77
2021/07/12 05:41:21;;;;;;;14.82;8.35;;;;;;;20.17;67.89;98383.00;4944370;29;20035;-78
2021/07/12 05:43:46;;;;;;;19.52;8.73;;;;;;;20.19;67.91;98388.19;4937193;29;20024;-78
2021/07/12 05:46:12;;;;;;;17.45;9.40;;;;;;;20.23;67.99;98389.88;4937275;29;20047;-78
2021/07/12 05:48:37;;;;;;;16.35;9.48;;;;;;;20.29;67.76;98386.81;4937410;29;20032;-78
2021/07/12 05:51:02;;;;;;;14.57;9.90;;;;;;;20.30;67.98;98396.78;4937411;29;20032;-78
2021/07/12 05:53:28;;;;;;;12.90;9.57;;;;;;;20.32;67.99;98400.00;4937412;29;20032;-78
2021/07/12 05:55:53;;;;;;;13.45;10.05;;;;;;;20.35;68.09;98402.06;4937374;29;20110;-78
2021/07/12 05:58:19;;;;;;;14.70;10.02;;;;;;;20.37;68.31;98413.66;4937303;29;20079;-77
2021/07/12 06:00:44;;;;;;;12.35;9.38;;;;;;;20.42;68.18;98410.59;4936901;29;20035;-78
2021/07/12 06:03:10;;;;;;;13.10;9.57;;;;;;;20.44;68.19;98411.03;4920016;29;20035;-78
2021/07/12 06:05:35;;;;;;;13.15;9.32;;;;;;;20.45;68.10;98412.66;4937375;29;20063;-78
2021/07/12 06:08:01;;;;;;;17.38;10.48;;;;;;;20.47;68.37;98401.94;4940058;29;20476;-78
2021/07/12 06:10:26;;;;;;;16.40;10.70;;;;;;;20.50;68.13;98417.94;4937221;29;20032;-77
2021/07/12 06:12:52;;;;;;;15.77;10.73;;;;;;;20.53;68.32;98413.59;4937050;29;20167;-78
2021/07/12 06:15:18;;;;;;;14.77;10.82;;;;;;;20.55;68.12;98416.84;4937058;29;20476;-78
2021/07/12 06:17:45;;;;;;;12.80;10.73;;;;;;;20.53;68.32;98414.44;4937536;29;20031;-78
2021/07/12 06:20:14;;;;;;;14.73;11.00;;;;;;;20.49;68.12;98407.16;4936466;29;20028;-77
2021/07/12 06:22:39;;;;;;;15.60;10.88;;;;;;;20.45;67.98;98412.66;4955033;29;20054;-77
2021/07/12 06:25:05;;;;;;;15.82;10.45;;;;;;;20.45;68.32;98411.84;4933617;29;20480;-78
2021/07/12 06:27:30;;;;;;;18.45;11.18;;;;;;;20.40;68.17;98401.78;4939719;29;20098;-77
2021/07/12 06:29:56;;;;;;;16.45;10.50;;;;;;;20.44;68.25;98397.09;4936597;29;20477;-78
2021/07/12 06:32:21;;;;;;;18.25;10.50;;;;;;;20.45;68.66;98400.69;4937988;29;20083;-78
2021/07/12 06:34:46;;;;;;;18.05;9.90;;;;;;;20.44;68.45;98402.69;4955727;29;20563;-78
2021/07/12 06:37:12;;;;;;;13.85;8.90;;;;;;;20.42;68.40;98399.44;4947877;29;20540;-77
2021/07/12 06:39:37;;;;;;;15.43;8.93;;;;;;;20.41;68.41;98405.38;4936542;29;20042;-77
2021/07/12 06:42:03;;;;;;;13.70;9.10;;;;;;;20.36;68.42;98395.34;4936568;29;20060;-77
2021/07/12 06:44:29;;;;;;;13.27;8.40;;;;;;;20.35;68.56;98402.06;4936452;29;20072;-77
2021/07/12 06:46:54;;;;;;;13.75;8.68;;;;;;;20.36;68.46;98403.69;4936011;29;20079;-77
2021/07/12 06:49:20;;;;;;;13.10;8.20;;;;;;;20.35;68.35;98397.31;4939078;29;20468;-75
2021/07/12 06:51:45;;;;;;;10.07;7.90;;;;;;;20.33;68.25;98399.66;4936017;29;20023;-75
2021/07/12 06:54:10;;;;;;;12.18;7.32;;;;;;;20.32;68.17;98406.41;4934187;29;20122;-75
2021/07/12 06:56:36;;;;;;;9.38;7.30;;;;;;;20.29;67.96;98401.56;4935561;28;20484;-75
2021/07/12 06:59:03;;;;;;;10.45;6.65;;;;;;;20.23;68.30;98405.78;4938213;29;20094;-77
2021/07/12 07:01:28;;;;;;;10.32;6.95;;;;;;;20.19;68.17;98407.69;4935333;29;20044;-77
2021/07/12 07:03:54;;;;;;;10.10;7.78;;;;;;;20.19;68.32;98414.03;4935473;29;20425;-76
2021/07/12 07:06:19;;;;;;;10.40;7.82;;;;;;;20.20;68.41;98414.88;4948549;29;20027;-77
2021/07/12 07:08:44;;;;;;;10.48;7.65;;;;;;;20.20;68.92;98410.09;4951017;29;20063;-77
2021/07/12 07:11:10;;;;;;;10.20;8.30;;;;;;;20.22;68.27;98418.09;4922726;29;20086;-77
2021/07/12 07:13:35;;;;;;;10.00;6.95;;;;;;;20.21;68.72;98419.25;4937097;29;20035;-77
2021/07/12 07:16:01;;;;;;;8.88;5.45;;;;;;;20.17;68.39;98421.16;4935369;29;20027;-78
2021/07/12 07:18:26;;;;;;;7.90;6.30;;;;;;;20.03;68.22;98422.41;4935336;29;20035;-77
2021/07/12 07:20:52;;;;;;;7.90;6.35;;;;;;;19.96;68.14;98429.78;4952935;29;20236;-79
2021/07/12 07:23:17;;;;;;;9.90;6.88;;;;;;;19.97;68.48;98431.41;4942905;29;20027;-78
2021/07/12 07:25:43;;;;;;;10.40;7.07;;;;;;;19.91;68.41;98430.88;4935481;29;20114;-79
2021/07/12 07:28:10;;;;;;;9.63;6.35;;;;;;;19.90;68.97;98430.06;4935336;29;20102;-79
2021/07/12 07:30:37;;;;;;;7.97;6.50;;;;;;;19.88;68.17;98437.13;4927285;29;20031;-77
2021/07/12 07:33:03;;;;;;;8.30;6.20;;;;;;;19.90;68.39;98432.84;4932689;29;20480;-78
2021/07/12 07:35:29;;;;;;;12.07;7.18;;;;;;;19.88;68.64;98421.25;4933529;29;20031;-79
2021/07/12 07:37:54;;;;;;;10.02;6.50;;;;;;;19.87;68.32;98427.16;4932900;29;20024;-77
2021/07/12 07:40:21;;;;;;;10.10;6.75;;;;;;;19.80;68.39;98419.44;4928005;29;20074;-77
2021/07/12 07:42:46;;;;;;;9.40;7.10;;;;;;;19.79;68.63;98429.78;4932166;29;20023;-78
2021/07/12 07:45:13;;;;;;;9.57;6.88;;;;;;;19.74;68.60;98427.25;4932252;29;20042;-78
2021/07/12 07:47:40;;;;;;;9.98;6.97;;;;;;;19.76;68.75;98435.25;4914798;29;20518;-78
2021/07/12 07:50:07;;;;;;;10.45;7.22;;;;;;;19.80;68.66;98441.69;4932346;29;20023;-80
2021/07/12 07:52:33;;;;;;;10.20;6.70;;;;;;;19.83;68.91;98451.31;4932495;29;20042;-77
2021/07/12 07:54:59;;;;;;;11.80;7.32;;;;;;;19.86;68.65;98453.38;4933008;29;20039;-78
2021/07/12 07:57:24;;;;;;;10.45;7.30;;;;;;;19.85;68.94;98426.72;4931729;29;20063;-75
2021/07/12 07:59:49;;;;;;;11.30;7.70;;;;;;;19.83;68.79;98418.72;4933650;29;20106;-77
2021/07/12 08:02:15;;;;;;;12.13;8.93;;;;;;;19.87;68.81;98427.97;4943971;29;20047;-77
2021/07/12 08:04:40;;;;;;;12.15;8.70;;;;;;;19.90;68.85;98424.50;4933411;29;20387;-78
2021/07/12 08:07:07;;;;;;;11.57;9.63;;;;;;;19.93;68.94;98417.41;4935929;29;20472;-78
2021/07/12 08:09:33;;;;;;;13.40;10.43;;;;;;;19.96;69.08;98404.75;4936209;29;20437;-77
2021/07/12 08:11:58;;;;;;;15.85;11.60;;;;;;;20.01;69.11;98412.81;4936831;29;20043;-74
2021/07/12 08:14:23;;;;;;;12.77;9.00;;;;;;;20.02;68.89;98406.09;4919764;29;20472;-78
2021/07/12 08:16:49;;;;;;;22.08;15.35;;;;;;;20.04;68.91;98407.31;4919569;29;20499;-77
2021/07/12 08:19:16;;;;;;;20.48;14.02;;;;;;;20.07;69.06;98419.75;4935714;29;20091;-77
2021/07/12 08:21:41;;;;;;;17.77;11.93;;;;;;;20.04;69.22;98428.81;4936341;29;20027;-80
2021/07/12 08:24:07;;;;;;;13.57;9.07;;;;;;;20.08;69.23;98438.84;4936829;29;20034;-79
2021/07/12 08:26:32;;;;;;;11.25;7.95;;;;;;;20.12;69.09;98444.53;4935156;29;20107;-79
2021/07/12 08:28:58;;;;;;;9.73;7.75;;;;;;;20.19;68.84;98430.75;4934792;29;20460;-80
2021/07/12 08:31:23;;;;;;;12.20;8.20;;;;;;;20.27;69.39;98420.59;4935786;29;20457;-78
2021/07/12 08:33:49;;;;;;;9.75;6.93;;;;;;;20.37;68.94;98422.00;4937052;29;20400;-81
2021/07/12 08:36:16;;;;;;;9.25;6.70;;;;;;;20.44;69.26;98433.31;4935490;29;20110;-79
2021/07/12 08:38:42;;;;;;;9.18;6.97;;;;;;;20.55;69.39;98433.56;4935542;29;20027;-79
2021/07/12 08:41:08;;;;;;;8.43;6.43;;;;;;;20.63;68.90;98426.97;4936521;29;20022;-79
2021/07/12 08:43:33;;;;;;;11.70;7.25;;;;;;;20.70;69.13;98420.75;4936096;29;20031;-81
2021/07/12 08:45:58;;;;;;;8.98;6.75;;;;;;;20.77;69.31;98422.91;4936073;29;20043;-79
2021/07/12 08:48:24;;;;;;;8.60;5.80;;;;;;;20.87;69.00;98433.47;4935240;29;20055;-79
2021/07/12 08:50:50;;;;;;;8.85;5.70;;;;;;;20.96;68.97;98433.28;4936729;28;20102;-79
2021/07/12 08:53:15;;;;;;;8.27;5.15;;;;;;;21.05;68.87;98428.25;4935481;29;20031;-76
2021/07/12 08:55:43;;;;;;;10.07;5.68;;;;;;;21.12;68.75;98431.19;4942135;29;20535;-76
2021/07/12 08:58:12;;;;;;;8.60;5.45;;;;;;;21.21;68.81;98430.97;4918202;29;20027;-77
2021/07/12 09:00:44;;;;;;;7.80;4.75;;;;;;;21.26;68.11;98439.03;4934823;29;20059;-79
2021/07/12 09:03:20;;;;;;;9.40;5.60;;;;;;;21.22;67.89;98427.00;4949833;29;20053;-77
2021/07/12 09:05:58;;;;;;;8.25;5.20;;;;;;;21.24;67.82;98433.00;4932674;29;20079;-79
2021/07/12 09:08:36;;;;;;;7.70;4.97;;;;;;;21.32;68.08;98427.56;4934657;29;20031;-77
2021/07/12 09:11:25;;;;;;;5.25;4.25;;;;;;;21.38;68.11;98434.47;4943864;29;20034;-79
2021/07/12 09:13:59;;;;;;;5.05;4.10;;;;;;;21.40;67.76;98430.13;4934274;29;20055;-78
2021/07/12 09:16:41;;;;;;;5.57;4.25;;;;;;;21.47;67.80;98421.09;4933879;29;20027;-78
2021/07/12 09:19:09;;;;;;;7.38;4.47;;;;;;;21.53;67.63;98416.84;4934655;29;20070;-77
2021/07/12 09:21:39;;;;;;;5.70;4.53;;;;;;;21.60;67.63;98416.13;4935064;29;20038;-80
2021/07/12 09:24:16;;;;;;;7.95;5.40;;;;;;;21.66;67.39;98419.44;4934432;29;20032;-77
2021/07/12 09:26:46;;;;;;;7.65;6.10;;;;;;;21.70;67.36;98428.69;4934531;29;21007;-76
2021/07/12 09:29:33;;;;;;;7.00;4.30;;;;;;;21.75;67.17;98425.59;4934346;29;20034;-79
2021/07/12 09:31:59;;;;;;;7.88;5.18;;;;;;;21.78;67.08;98424.06;4936160;29;20511;-77
2021/07/12 09:34:25;;;;;;;7.72;5.13;;;;;;;21.80;67.07;98422.50;4919364;29;20064;-79
2021/07/12 09:36:53;;;;;;;5.05;4.20;;;;;;;21.79;66.77;98412.50;4935081;29;20405;-75
2021/07/12 09:39:36;;;;;;;6.22;5.00;;;;;;;21.77;66.97;98420.44;4934653;29;20040;-78
2021/07/12 09:42:09;;;;;;;5.30;4.18;;;;;;;21.81;67.07;98417.72;4934845;29;20102;-77
2021/07/12 09:44:38;;;;;;;6.97;4.18;;;;;;;21.81;66.86;98420.50;4935449;29;20075;-76
2021/07/12 09:47:10;;;;;;;6.80;4.90;;;;;;;21.85;66.79;98415.78;4934513;29;20040;-76
2021/07/12 09:49:36;;;;;;;6.40;5.43;;;;;;;21.95;67.09;98414.38;4932656;29;20042;-76
2021/07/12 09:52:05;;;;;;;5.60;4.95;;;;;;;21.99;66.81;98415.25;4944905;29;20422;-77
2021/07/12 09:54:35;;;;;;;5.50;4.78;;;;;;;21.99;66.51;98421.63;4938715;29;20039;-75
2021/07/12 09:57:06;;;;;;;5.82;5.10;;;;;;;22.08;67.03;98417.75;4938292;29;20032;-74
2021/07/12 09:59:33;;;;;;;6.53;5.45;;;;;;;22.16;67.05;98420.28;4934823;28;20492;-73
2021/07/12 10:02:01;;;;;;;6.22;4.47;;;;;;;22.22;66.93;98420.75;4936719;28;20484;-76
2021/07/12 10:04:27;;;;;;;6.32;4.15;;;;;;;22.30;66.92;98424.50;4933621;29;20068;-75
2021/07/12 10:06:54;;;;;;;6.97;4.50;;;;;;;22.39;66.98;98418.63;4937010;29;20031;-77
2021/07/12 10:09:24;;;;;;;6.13;5.15;;;;;;;22.48;66.74;98415.56;4934993;29;20036;-75
2021/07/12 10:11:53;;;;;;;5.15;3.85;;;;;;;22.58;66.67;98412.13;4917767;29;20035;-77
2021/07/12 10:14:21;;;;;;;4.10;3.70;;;;;;;22.62;65.99;98415.00;4934307;29;20441;-77
2021/07/12 10:16:46;;;;;;;4.53;3.40;;;;;;;22.67;66.25;98418.25;4938222;29;20036;-78
2021/07/12 10:19:12;;;;;;;5.05;3.75;;;;;;;22.75;66.06;98410.75;4934502;29;20031;-77
2021/07/12 10:21:51;;;;;;;5.35;3.78;;;;;;;22.81;66.31;98403.66;4933927;29;20498;-76
2021/07/12 10:24:24;;;;;;;6.40;4.15;;;;;;;22.94;66.38;98403.41;4934339;29;20231;-74
2021/07/12 10:26:58;;;;;;;4.50;3.72;;;;;;;23.05;66.33;98407.94;4934312;29;20032;-76
2021/07/12 10:29:26;;;;;;;5.55;4.35;;;;;;;23.15;66.01;98400.06;4932287;29;20058;-75
2021/07/12 10:32:03;;;;;;;8.60;5.43;;;;;;;23.23;65.63;98390.56;4933906;29;20035;-76
2021/07/12 10:34:35;;;;;;;5.05;3.90;;;;;;;23.31;65.44;98383.06;4933193;29;20032;-75
2021/07/12 10:37:22;;;;;;;6.43;3.80;;;;;;;23.30;65.08;98382.25;4931817;29;20501;-75
2021/07/12 10:39:56;;;;;;;5.63;4.03;;;;;;;23.36;64.99;98377.13;4920152;29;20071;-78
2021/07/12 10:42:43;;;;;;;3.58;3.28;;;;;;;23.46;64.87;98376.41;4933495;29;20023;-76
2021/07/12 10:45:11;;;;;;;5.00;3.80;;;;;;;23.56;64.75;98374.91;4933091;29;20074;-74
2021/07/12 10:47:59;;;;;;;4.43;3.40;;;;;;;23.63;64.84;98368.56;4932015;29;20023;-78
2021/07/12 10:50:43;;;;;;;4.75;3.10;;;;;;;23.79;65.00;98363.50;4933626;29;20031;-79
2021/07/12 10:53:14;;;;;;;3.88;3.17;;;;;;;23.87;64.21;98352.34;4933242;29;20123;-81
2021/07/12 10:55:41;;;;;;;5.78;3.95;;;;;;;23.92;63.98;98358.41;4932805;29;20070;-77
2021/07/12 10:58:19;;;;;;;6.00;4.20;;;;;;;23.98;63.85;98353.25;4932762;29;20496;-80
2021/07/12 11:00:46;;;;;;;6.43;3.92;;;;;;;24.07;63.77;98344.50;4931390;29;20104;-81
2021/07/12 11:03:37;;;;;;;5.00;3.88;;;;;;;24.16;63.46;98338.59;4935170;29;20082;-79
2021/07/12 11:06:32;;;;;;;7.05;4.80;;;;;;;24.23;62.74;98344.22;4935573;29;20027;-78
2021/07/12 11:08:59;;;;;;;5.13;4.00;;;;;;;24.30;62.57;98344.25;4926322;29;20035;-77
2021/07/12 11:11:24;;;;;;;5.85;4.53;;;;;;;24.36;62.16;98336.28;4934408;29;20063;-77
2021/07/12 11:13:58;;;;;;;7.25;4.88;;;;;;;24.43;62.28;98338.31;4916831;29;20086;-78
2021/07/12 11:16:41;;;;;;;4.28;3.88;;;;;;;24.50;62.34;98336.34;4931641;29;20027;-78
2021/07/12 11:19:31;;;;;;;5.63;4.95;;;;;;;24.61;61.73;98347.63;4931713;29;20028;-78
2021/07/12 11:22:23;;;;;;;5.45;4.82;;;;;;;24.68;61.10;98333.63;4931408;29;20055;-78
2021/07/12 11:25:08;;;;;;;5.55;4.88;;;;;;;24.77;61.07;98338.09;4920727;29;20082;-75
2021/07/12 11:27:41;;;;;;;7.05;4.78;;;;;;;24.86;61.64;98326.53;4931306;29;20428;-77
2021/07/12 11:30:43;;;;;;;5.63;4.75;;;;;;;25.01;61.77;98325.34;4920895;29;20038;-77
2021/07/12 11:33:08;;;;;;;6.38;4.90;;;;;;;25.10;61.32;98333.38;4839979;29;20467;-75